createdAt,value
2022-08-22T00:00:51.825Z,8.15
2022-08-22T00:03:01.249Z,5.95
2022-08-22T00:03:31.434Z,8.55
2022-08-22T00:08:46.159Z,9.70
2022-08-22T00:11:22.070Z,11.55
2022-08-22T00:14:01.299Z,8.98
2022-08-22T00:16:39.492Z,10.68
2022-08-22T00:19:18.722Z,12.20
2022-08-22T00:22:00.250Z,9.88
2022-08-22T00:24:32.231Z,10.95
2022-08-22T00:27:04.349Z,13.70
2022-08-22T00:29:38.818Z,11.23
2022-08-22T00:32:12.928Z,8.15
2022-08-22T00:34:47.683Z,11.82
2022-08-22T00:37:24.450Z,8.15
2022-08-22T00:39:56.087Z,8.25
2022-08-22T00:42:54.205Z,10.20
2022-08-22T00:45:48.422Z,11.40
2022-08-22T00:48:36.129Z,10.52
2022-08-22T00:51:24.080Z,8.35
2022-08-22T00:54:01.154Z,10.52
2022-08-22T00:57:06.269Z,9.80
2022-08-22T00:59:52.884Z,11.18
2022-08-22T01:02:32.920Z,18.55
2022-08-22T01:05:39.705Z,12.40
2022-08-22T01:08:22.352Z,10.82
2022-08-22T01:11:06.229Z,13.05
2022-08-22T01:13:47.999Z,11.00
2022-08-22T01:16:41.657Z,9.38
2022-08-22T01:19:50.786Z,12.20
2022-08-22T01:22:48.082Z,11.80
2022-08-22T01:25:49.802Z,10.27
2022-08-22T01:28:43.920Z,11.40
2022-08-22T01:32:10.821Z,9.93
2022-08-22T01:35:05.557Z,9.13
2022-08-22T01:37:48.846Z,11.85
2022-08-22T01:41:04.560Z,12.73
2022-08-22T01:43:59.362Z,14.05
2022-08-22T01:46:35.090Z,11.77
2022-08-22T01:49:09.799Z,9.50
2022-08-22T01:51:47.021Z,11.20
2022-08-22T01:54:25.943Z,13.73
2022-08-22T01:57:01.261Z,15.95
2022-08-22T01:59:35.343Z,12.32
2022-08-22T02:02:31.118Z,10.88
2022-08-22T02:05:07.465Z,8.00
2022-08-22T02:07:52.871Z,10.93
2022-08-22T02:10:26.307Z,9.13
2022-08-22T02:13:05.275Z,13.27
2022-08-22T02:15:47.963Z,14.48
2022-08-22T02:18:25.725Z,10.88
2022-08-22T02:21:04.037Z,10.07
2022-08-22T02:23:45.248Z,9.77
2022-08-22T02:26:18.359Z,12.32
2022-08-22T02:28:56.943Z,10.35
2022-08-22T02:31:37.787Z,8.65
2022-08-22T02:34:21.498Z,14.75
2022-08-22T02:36:58.176Z,11.43
2022-08-22T02:39:36.798Z,10.15
2022-08-22T02:42:17.494Z,11.70
2022-08-22T02:44:56.381Z,13.40
2022-08-22T02:47:34.052Z,13.05
2022-08-22T02:50:13.146Z,12.65
2022-08-22T02:52:54.385Z,17.05
2022-08-22T02:55:37.202Z,11.05
2022-08-22T02:58:09.799Z,10.38
2022-08-22T03:00:48.185Z,18.17
2022-08-22T03:03:21.120Z,11.60
2022-08-22T03:06:01.433Z,12.10
2022-08-22T03:08:32.963Z,15.50
2022-08-22T03:11:19.787Z,9.68
2022-08-22T03:14:02.685Z,13.32
2022-08-22T03:16:37.302Z,8.65
2022-08-22T03:19:13.320Z,18.52
2022-08-22T03:21:54.901Z,10.20
2022-08-22T03:24:26.917Z,9.52
2022-08-22T03:27:02.924Z,20.77
2022-08-22T03:29:35.744Z,15.52
2022-08-22T03:32:14.972Z,14.57
2022-08-22T03:34:57.935Z,17.08
2022-08-22T03:37:37.503Z,15.90
2022-08-22T03:40:21.236Z,14.55
2022-08-22T03:43:25.894Z,14.80
2022-08-22T03:46:42.022Z,14.35
2022-08-22T03:49:42.214Z,15.55
2022-08-22T03:52:28.938Z,14.43
2022-08-22T03:55:14.053Z,11.50
2022-08-22T03:58:00.500Z,14.85
2022-08-22T04:00:47.746Z,18.15
2022-08-22T04:04:01.290Z,15.55
2022-08-22T04:07:00.135Z,19.40
2022-08-22T04:10:04.180Z,16.35
2022-08-22T04:12:55.453Z,23.35
2022-08-22T04:15:50.042Z,18.30
2022-08-22T04:18:33.327Z,19.55
2022-08-22T04:21:28.367Z,16.58
2022-08-22T04:24:21.680Z,12.43
2022-08-22T04:26:53.991Z,21.27
2022-08-22T04:29:28.238Z,14.82
2022-08-22T04:32:07.000Z,16.02
2022-08-22T04:34:41.124Z,14.43
2022-08-22T04:37:15.735Z,17.08
2022-08-22T04:39:49.750Z,16.52
2022-08-22T04:42:32.725Z,17.40
2022-08-22T04:45:06.971Z,21.48
2022-08-22T04:47:40.015Z,13.38
2022-08-22T04:50:21.289Z,15.38
2022-08-22T04:53:10.710Z,18.13
2022-08-22T04:55:55.419Z,15.90
2022-08-22T04:58:33.029Z,17.38
2022-08-22T05:01:10.480Z,17.27
2022-08-22T05:03:45.863Z,18.45
2022-08-22T05:06:19.764Z,12.13
2022-08-22T05:08:53.895Z,13.52
2022-08-22T05:11:24.787Z,17.90
2022-08-22T05:13:56.078Z,16.50
2022-08-22T05:16:28.510Z,16.63
2022-08-22T05:19:01.818Z,22.95
2022-08-22T05:21:33.830Z,12.68
2022-08-22T05:24:05.652Z,15.73
2022-08-22T05:26:38.954Z,17.70
2022-08-22T05:29:09.147Z,15.82
2022-08-22T05:31:45.274Z,18.48
2022-08-22T05:34:19.091Z,12.57
2022-08-22T05:36:50.196Z,14.82
2022-08-22T05:39:22.507Z,12.65
2022-08-22T05:41:55.817Z,13.02
2022-08-22T05:44:27.030Z,12.80
2022-08-22T05:47:01.243Z,13.90
2022-08-22T05:49:38.863Z,16.63
2022-08-22T05:52:20.295Z,15.47
2022-08-22T05:54:54.579Z,15.25
2022-08-22T05:57:29.986Z,15.57
2022-08-22T06:00:05.104Z,16.75
2022-08-22T06:02:49.410Z,15.13
2022-08-22T06:05:25.790Z,25.20
2022-08-22T06:08:00.194Z,14.20
2022-08-22T06:10:35.944Z,15.15
2022-08-22T06:13:11.510Z,19.15
2022-08-22T06:15:48.667Z,14.68
2022-08-22T06:18:21.478Z,20.65
2022-08-22T06:20:54.590Z,16.00
2022-08-22T06:23:27.607Z,15.05
2022-08-22T06:26:00.627Z,13.85
2022-08-22T06:28:32.824Z,23.83
2022-08-22T06:31:03.452Z,18.33
2022-08-22T06:33:37.946Z,15.45
2022-08-22T06:36:29.257Z,21.92
2022-08-22T06:39:06.572Z,15.43
2022-08-22T06:41:36.784Z,12.40
2022-08-22T06:44:07.989Z,18.88
2022-08-22T06:46:38.239Z,13.93
2022-08-22T06:49:09.227Z,16.33
2022-08-22T06:51:39.722Z,18.73
2022-08-22T06:54:16.634Z,16.88
2022-08-22T06:56:48.347Z,14.10
2022-08-22T06:59:18.475Z,19.27
2022-08-22T07:01:52.466Z,15.40
2022-08-22T07:04:26.401Z,21.20
2022-08-22T07:06:58.290Z,17.73
2022-08-22T07:09:32.087Z,15.93
2022-08-22T07:12:04.030Z,20.25
2022-08-22T07:14:40.728Z,19.17
2022-08-22T07:17:15.933Z,21.75
2022-08-22T07:19:50.449Z,25.23
2022-08-22T07:22:25.156Z,17.58
2022-08-22T07:25:02.282Z,18.50
2022-08-22T07:27:48.806Z,15.73
2022-08-22T07:30:27.941Z,14.20
2022-08-22T07:33:26.159Z,17.58
2022-08-22T07:35:56.819Z,19.65
2022-08-22T07:38:33.628Z,16.05
2022-08-22T07:41:12.842Z,11.93
2022-08-22T07:43:46.144Z,15.98
2022-08-22T07:46:27.466Z,16.80
2022-08-22T07:49:09.414Z,14.30
2022-08-22T07:51:44.095Z,13.85
2022-08-22T07:54:15.555Z,11.10
2022-08-22T07:56:48.308Z,12.95
2022-08-22T07:59:19.331Z,14.60
2022-08-22T08:01:51.534Z,17.90
2022-08-22T08:04:24.762Z,13.48
2022-08-22T08:06:55.753Z,12.85
2022-08-22T08:09:28.764Z,12.57
2022-08-22T08:11:57.187Z,13.45
2022-08-22T08:14:27.102Z,12.32
2022-08-22T08:17:02.304Z,18.35
2022-08-22T08:19:33.307Z,17.48
2022-08-22T08:22:01.520Z,16.55
2022-08-22T08:24:39.838Z,17.95
2022-08-22T08:27:33.245Z,9.60
2022-08-22T08:30:04.054Z,9.52
2022-08-22T08:32:36.078Z,12.52
2022-08-22T08:35:10.475Z,15.55
2022-08-22T08:37:44.713Z,10.13
2022-08-22T08:40:25.576Z,21.65
2022-08-22T08:43:29.617Z,9.85
2022-08-22T08:46:24.756Z,9.63
2022-08-22T08:49:29.445Z,9.18
2022-08-22T08:52:49.031Z,15.40
2022-08-22T08:58:24.076Z,7.60
2022-08-22T09:00:59.541Z,13.25
2022-08-22T09:04:13.455Z,8.48
2022-08-22T09:07:01.493Z,14.38
2022-08-22T09:09:52.409Z,9.52
2022-08-22T09:16:04.598Z,9.45
2022-08-22T09:18:52.065Z,13.00
2022-08-22T09:21:50.578Z,11.40
2022-08-22T09:24:46.500Z,5.60
2022-08-22T09:27:20.304Z,7.70
2022-08-22T09:29:59.634Z,6.93
2022-08-22T09:32:42.429Z,10.82
2022-08-22T09:35:20.040Z,17.63
2022-08-22T09:38:02.649Z,10.77
2022-08-22T09:40:35.880Z,6.80
2022-08-22T09:43:07.540Z,11.15
2022-08-22T09:46:02.486Z,12.20
2022-08-22T09:48:42.483Z,6.68
2022-08-22T09:51:32.452Z,10.35
2022-08-22T09:54:24.820Z,9.15
2022-08-22T09:57:04.041Z,7.35
2022-08-22T09:59:51.495Z,11.90
2022-08-22T10:02:29.567Z,8.07
2022-08-22T10:05:04.155Z,5.03
2022-08-22T10:07:46.879Z,8.27
2022-08-22T10:10:36.792Z,6.15
2022-08-22T10:13:13.102Z,8.73
2022-08-22T10:15:44.015Z,8.05
2022-08-22T10:18:29.685Z,6.38
2022-08-22T10:21:09.740Z,7.50
2022-08-22T10:23:45.902Z,9.65
2022-08-22T10:26:29.162Z,8.02
2022-08-22T10:29:06.873Z,10.27
2022-08-22T10:31:45.071Z,5.40
2022-08-22T10:34:34.109Z,9.55
2022-08-22T10:37:23.769Z,5.63
2022-08-22T10:39:59.720Z,7.70
2022-08-22T10:42:35.723Z,5.68
2022-08-22T10:45:23.997Z,6.03
2022-08-22T10:48:24.258Z,6.68
2022-08-22T10:51:08.926Z,7.97
2022-08-22T10:53:57.010Z,5.80
2022-08-22T10:56:28.393Z,7.38
2022-08-22T10:59:08.205Z,6.60
2022-08-22T11:01:51.166Z,6.05
2022-08-22T11:04:36.128Z,5.25
2022-08-22T11:07:21.518Z,9.32
2022-08-22T11:09:58.774Z,7.82
2022-08-22T11:12:36.563Z,10.73
2022-08-22T11:15:34.515Z,7.35
2022-08-22T11:18:20.516Z,6.68
2022-08-22T11:21:00.106Z,8.48
2022-08-22T11:23:40.120Z,9.25
2022-08-22T11:26:29.908Z,9.65
2022-08-22T11:29:26.339Z,4.22
2022-08-22T11:32:07.838Z,4.43
2022-08-22T11:34:51.660Z,7.80
2022-08-22T11:37:42.823Z,6.40
2022-08-22T11:40:23.954Z,5.97
2022-08-22T11:43:02.976Z,7.38
2022-08-22T11:45:40.408Z,8.07
2022-08-22T11:48:21.130Z,5.57
2022-08-22T11:50:55.759Z,6.60
2022-08-22T11:53:34.942Z,12.48
2022-08-22T11:56:17.421Z,5.30
2022-08-22T11:58:57.667Z,7.13
2022-08-22T12:01:35.099Z,5.65
2022-08-22T12:04:12.941Z,5.88
2022-08-22T12:06:51.402Z,4.97
2022-08-22T12:09:31.839Z,3.72
2022-08-22T12:12:32.528Z,5.88
2022-08-22T12:15:09.189Z,7.63
2022-08-22T12:18:01.976Z,7.53
2022-08-22T12:20:56.088Z,7.93
2022-08-22T12:23:49.443Z,8.82
2022-08-22T12:26:28.057Z,9.98
2022-08-22T12:29:15.523Z,10.68
2022-08-22T12:32:31.915Z,7.15
2022-08-22T12:35:18.528Z,4.20
2022-08-22T12:37:54.350Z,5.63
2022-08-22T12:40:32.786Z,4.93
2022-08-22T12:43:33.489Z,7.03
2022-08-22T12:46:35.482Z,5.85
2022-08-22T12:49:22.695Z,6.70
2022-08-22T12:52:04.748Z,4.28
2022-08-22T12:54:53.641Z,7.57
2022-08-22T12:57:34.337Z,9.38
2022-08-22T13:00:22.840Z,6.00
2022-08-22T13:02:55.805Z,8.27
2022-08-22T13:05:27.363Z,6.22
2022-08-22T13:08:02.397Z,8.18
2022-08-22T13:10:39.970Z,7.22
2022-08-22T13:13:12.829Z,8.85
2022-08-22T13:15:53.863Z,6.18
2022-08-22T13:18:29.798Z,11.55
2022-08-22T13:21:02.735Z,7.03
2022-08-22T13:23:34.259Z,7.32
2022-08-22T13:26:12.252Z,9.15
2022-08-22T13:29:24.173Z,6.30
2022-08-22T13:31:55.177Z,8.48
2022-08-22T13:34:39.661Z,4.90
2022-08-22T13:37:12.710Z,4.70
2022-08-22T13:39:45.647Z,8.77
2022-08-22T13:42:29.728Z,6.72
2022-08-22T13:45:02.224Z,5.00
2022-08-22T13:47:34.569Z,7.32
2022-08-22T13:50:23.556Z,10.65
2022-08-22T13:52:59.082Z,9.32
2022-08-22T13:55:34.001Z,6.40
2022-08-22T13:58:07.685Z,5.93
2022-08-22T14:01:13.913Z,5.47
2022-08-22T14:03:49.124Z,6.15
2022-08-22T14:06:37.924Z,9.40
2022-08-22T14:09:15.508Z,7.85
2022-08-22T14:11:50.024Z,8.88
2022-08-22T14:14:26.484Z,7.22
2022-08-22T14:16:56.185Z,8.10
2022-08-22T14:19:31.943Z,5.15
2022-08-22T14:22:31.997Z,8.43
2022-08-22T14:25:07.338Z,5.28
2022-08-22T14:27:39.780Z,4.25
2022-08-22T14:30:15.836Z,4.15
2022-08-22T14:32:48.650Z,8.05
2022-08-22T14:35:29.238Z,8.20
2022-08-22T14:38:17.868Z,8.60
2022-08-22T14:40:47.475Z,7.70
2022-08-22T14:43:22.794Z,7.47
2022-08-22T14:45:57.843Z,10.05
2022-08-22T14:48:40.573Z,8.07
2022-08-22T14:51:18.401Z,7.00
2022-08-22T14:53:51.341Z,9.13
2022-08-22T14:56:22.941Z,9.55
2022-08-22T14:58:54.854Z,4.80
2022-08-22T15:01:25.411Z,7.65
2022-08-22T15:03:56.376Z,5.05
2022-08-22T15:06:37.072Z,6.75
2022-08-22T15:09:12.617Z,5.63
2022-08-22T15:11:48.619Z,8.90
2022-08-22T15:14:25.322Z,8.13
2022-08-22T15:16:56.042Z,7.28
2022-08-22T15:19:27.485Z,9.23
2022-08-22T15:22:11.372Z,8.60
2022-08-22T15:24:46.138Z,5.10
2022-08-22T15:27:18.886Z,7.63
2022-08-22T15:29:52.477Z,11.40
2022-08-22T15:32:26.801Z,9.02
2022-08-22T15:35:05.016Z,7.78
2022-08-22T15:37:34.961Z,12.30
2022-08-22T15:40:12.717Z,6.03
2022-08-22T15:45:20.963Z,7.35
2022-08-22T15:47:53.768Z,4.38
2022-08-22T15:50:35.591Z,7.65
2022-08-22T15:53:13.403Z,5.70
2022-08-22T15:56:27.915Z,7.70
2022-08-22T15:59:23.966Z,8.35
2022-08-22T16:01:54.885Z,9.63
2022-08-22T16:04:43.753Z,6.75
2022-08-22T16:07:38.739Z,6.53
2022-08-22T16:10:14.468Z,11.10
2022-08-22T16:12:47.676Z,6.28
2022-08-22T16:15:56.937Z,8.80
2022-08-22T16:19:02.023Z,7.57
2022-08-22T16:22:10.326Z,10.05
2022-08-22T16:24:57.476Z,9.10
2022-08-22T16:27:28.058Z,7.20
2022-08-22T16:30:13.130Z,11.75
2022-08-22T16:32:52.170Z,11.88
2022-08-22T16:35:57.296Z,6.15
2022-08-22T16:38:26.885Z,7.07
2022-08-22T16:40:54.958Z,6.03
2022-08-22T16:43:23.210Z,7.18
2022-08-22T16:45:58.924Z,7.03
2022-08-22T16:48:36.053Z,6.00
2022-08-22T16:51:14.751Z,6.97
2022-08-22T16:54:06.150Z,9.25
2022-08-22T16:56:40.539Z,7.55
2022-08-22T16:59:28.784Z,9.23
2022-08-22T17:02:32.300Z,9.98
2022-08-22T17:05:21.023Z,8.38
2022-08-22T17:08:03.832Z,5.30
2022-08-22T17:10:43.231Z,11.38
2022-08-22T17:13:26.560Z,4.25
2022-08-22T17:16:09.968Z,6.75
2022-08-22T17:18:50.755Z,6.43
2022-08-22T17:21:26.165Z,7.07
2022-08-22T17:24:04.994Z,8.32
2022-08-22T17:26:48.799Z,6.05
2022-08-22T17:29:30.539Z,7.60
2022-08-22T17:32:08.124Z,6.80
2022-08-22T17:34:43.634Z,7.88
2022-08-22T17:37:22.658Z,5.13
2022-08-22T17:40:17.805Z,6.22
2022-08-22T17:42:55.470Z,10.35
2022-08-22T17:45:37.287Z,5.05
2022-08-22T17:48:16.962Z,5.18
2022-08-22T17:50:50.451Z,6.40
2022-08-22T17:53:30.153Z,5.00
2022-08-22T17:56:05.727Z,7.93
2022-08-22T17:58:43.685Z,6.50
2022-08-22T18:01:15.332Z,6.10
2022-08-22T18:03:51.822Z,7.90
2022-08-22T18:06:25.145Z,3.42
2022-08-22T18:11:50.998Z,5.22
2022-08-22T18:14:30.761Z,5.22
2022-08-22T18:17:00.990Z,5.93
2022-08-22T18:19:53.852Z,3.92
2022-08-22T18:22:29.171Z,3.63
2022-08-22T18:25:02.461Z,11.25
2022-08-22T18:27:37.245Z,8.40
2022-08-22T18:30:16.075Z,6.75
2022-08-22T18:32:54.865Z,5.55
2022-08-22T18:35:29.512Z,6.03
2022-08-22T18:38:19.705Z,8.55
2022-08-22T18:40:51.561Z,7.10
2022-08-22T18:43:24.213Z,6.65
2022-08-22T18:46:03.582Z,8.75
2022-08-22T18:48:59.470Z,8.38
2022-08-22T18:51:38.522Z,6.72
2022-08-22T18:54:34.904Z,9.52
2022-08-22T18:57:23.656Z,5.75
2022-08-22T19:00:05.128Z,4.25
2022-08-22T19:02:55.685Z,9.98
2022-08-22T19:05:54.657Z,6.30
2022-08-22T19:08:36.465Z,8.32
2022-08-22T19:11:17.497Z,6.90
2022-08-22T19:14:25.194Z,9.77
2022-08-22T19:17:18.970Z,7.25
2022-08-22T19:20:14.533Z,8.00
2022-08-22T19:22:43.427Z,8.23
2022-08-22T19:25:19.238Z,6.35
2022-08-22T19:28:26.656Z,4.75
2022-08-22T19:31:24.529Z,6.50
2022-08-22T19:34:29.884Z,6.65
2022-08-22T19:37:30.820Z,7.65
2022-08-22T19:40:02.964Z,7.32
2022-08-22T19:42:39.446Z,7.57
2022-08-22T19:45:18.738Z,5.82
2022-08-22T19:47:57.654Z,4.57
2022-08-22T19:50:31.370Z,3.90
2022-08-22T19:53:20.562Z,5.22
2022-08-22T19:56:02.678Z,5.78
2022-08-22T19:58:45.085Z,5.20
2022-08-22T20:01:31.957Z,4.70
2022-08-22T20:04:08.512Z,4.63
2022-08-22T20:06:44.422Z,5.63
2022-08-22T20:09:25.746Z,6.00
2022-08-22T20:12:05.458Z,8.35
2022-08-22T20:14:35.585Z,8.90
2022-08-22T20:17:12.798Z,5.65
2022-08-22T20:22:44.391Z,8.60
2022-08-22T20:25:41.573Z,13.32
2022-08-22T20:28:11.223Z,4.82
2022-08-22T20:30:42.125Z,4.75
2022-08-22T20:33:18.437Z,5.32
2022-08-22T20:35:54.267Z,5.60
2022-08-22T20:38:27.860Z,6.47
2022-08-22T20:41:11.044Z,6.22
2022-08-22T20:43:46.088Z,3.88
2022-08-22T20:46:26.485Z,3.85
2022-08-22T20:48:57.132Z,4.00
2022-08-22T20:51:28.223Z,5.07
2022-08-22T20:53:58.656Z,6.85
2022-08-22T20:56:34.948Z,4.93
2022-08-22T20:59:16.866Z,4.95
2022-08-22T21:01:46.087Z,5.93
2022-08-22T21:04:15.790Z,4.75
2022-08-22T21:06:44.988Z,10.05
2022-08-22T21:09:35.699Z,7.47
2022-08-22T21:12:04.785Z,3.97
2022-08-22T21:14:37.530Z,6.03
2022-08-22T21:17:21.036Z,6.03
2022-08-22T21:19:49.144Z,4.15
2022-08-22T21:22:30.163Z,7.00
2022-08-22T21:25:00.289Z,8.38
2022-08-22T21:27:31.355Z,8.20
2022-08-22T21:30:01.093Z,7.40
2022-08-22T21:32:34.603Z,6.45
2022-08-22T21:35:05.014Z,5.15
2022-08-22T21:37:41.625Z,9.23
2022-08-22T21:40:18.102Z,7.88
2022-08-22T21:42:59.357Z,6.07
2022-08-22T21:45:29.664Z,4.85
2022-08-22T21:47:58.404Z,5.63
2022-08-22T21:50:31.694Z,5.10
2022-08-22T21:53:10.181Z,4.53
2022-08-22T21:55:42.835Z,9.25
2022-08-22T21:58:36.014Z,4.32
2022-08-22T22:01:30.338Z,9.75
2022-08-22T22:03:58.970Z,5.75
2022-08-22T22:06:27.451Z,6.40
2022-08-22T22:08:56.837Z,6.50
2022-08-22T22:11:24.639Z,7.25
2022-08-22T22:16:24.293Z,4.88
2022-08-22T22:18:51.927Z,6.05
2022-08-22T22:21:19.652Z,5.50
2022-08-22T22:26:16.340Z,4.97
2022-08-22T22:28:48.271Z,4.60
2022-08-22T22:31:18.276Z,4.28
2022-08-22T22:33:46.884Z,7.63
2022-08-22T22:36:19.379Z,6.57
2022-08-22T22:38:47.905Z,6.57
2022-08-22T22:41:17.011Z,5.65
2022-08-22T22:43:44.693Z,7.43
2022-08-22T22:46:12.522Z,6.50
2022-08-22T22:48:40.334Z,8.70
2022-08-22T22:53:40.165Z,6.30
2022-08-22T22:56:13.934Z,5.13
2022-08-22T22:58:43.281Z,7.05
2022-08-22T23:01:13.541Z,11.38
2022-08-22T23:03:41.507Z,11.63
2022-08-22T23:06:12.609Z,7.90
2022-08-22T23:08:40.432Z,7.90
2022-08-22T23:13:39.843Z,6.00
2022-08-22T23:16:15.553Z,6.82
2022-08-22T23:18:44.467Z,9.18
2022-08-22T23:21:14.384Z,5.53
2022-08-22T23:23:42.592Z,11.15
2022-08-22T23:26:10.421Z,6.43
2022-08-22T23:31:19.422Z,9.25
2022-08-22T23:33:47.432Z,11.23
2022-08-22T23:36:17.941Z,7.50
2022-08-22T23:38:46.964Z,8.60
2022-08-22T23:41:17.743Z,10.27
2022-08-22T23:43:49.283Z,7.88
2022-08-22T23:46:20.586Z,8.43
2022-08-22T23:48:48.488Z,10.95
2022-08-22T23:51:18.900Z,7.88
2022-08-22T23:53:51.356Z,6.43
2022-08-22T23:56:22.149Z,6.63
2022-08-22T23:58:51.147Z,11.80
